GTRO2: Cimmarron R.,Guthrie, OK

                                SHEF ID:       GTRO2     Cimarron River near Guthrie, OK
STATION TYPE:
Regulating: Stage = 18.00, Flow = 36779

PRECIP STAGE RIV-FLOW BAT-LOAD
in ft cfs volt
Ccp-Rev Ccp-Rev Ccp-Rev Ccp-Rev
(America/Chicago)
04/24 00:00 ---- 5.70 244 12.73
04/24 01:00 ---- 5.71 248 12.73
04/24 02:00 ---- 5.74 261 12.73
04/24 03:00 ---- 5.76 269 12.65
04/24 04:00 ---- 5.77 273 12.65
04/24 05:00 ---- 5.78 278 12.65
04/24 06:00 ---- 5.79 282 12.65
04/24 07:00 ---- 5.79 282 12.65
04/24 08:00 ---- 5.81 291 12.65
04/24 09:00 ---- 5.82 295 13.21
04/24 10:00 ---- 5.83 300 13.53
04/24 11:00 ---- 5.83 300 13.53
04/24 12:00 ---- 5.79 282 13.84
04/24 13:00 ---- 5.77 273 13.92
04/24 14:00 ---- 5.77 273 13.92
04/24 15:00 ---- 5.77 273 13.53
04/24 16:00 ---- 5.76 269 13.37
04/24 17:00 ---- 5.74 261 13.37
04/24 18:00 ---- 5.73 257 13.21
04/24 19:00 ---- 5.70 244 13.05
04/24 20:00 ---- 5.74 261 12.89
04/24 21:00 ---- 5.74 261 12.81
04/24 22:00 ---- 5.74 261 12.81
04/24 23:00 ---- 5.76 269 12.73
Data processed at Sat 25Apr2026 04:47 GMT

NOTICE: If you are parsing this page

Please convert to using our Data API. Starting early 2026 we will be migrating to: https://water.usace.army.mil with modern pages rendered in JavaScript. When this migration completes you will no longer be able to scrape this page! CWMSDataAPI (CDA)

Timeseries IDs (TSIDs)

TSIDs used from left to right in the data table
GUTH.Precip-Inc.Total.1Hour.1Hour.Ccp-Rev
GUTH.Stage.Inst.1Hour.0.Ccp-Rev
GUTH.Flow.Inst.1Hour.0.Ccp-Rev
GUTH.Volt-Battery Load.Inst.1Hour.0.Ccp-Rev

                            

All information presented herein is the property of the government of the United States of America and may be revised or deleted at any time without prior notice. Dissemination of this information without the expressed written consent of the Public Affairs Office, Tulsa District U.S. Army Corps of Engineers is strictly prohibited. These data are gathered electronically and, as presented, have NOT undergone any form of quality control. These data are NOT guaranteed to be valid or correct.